sensor_id;sensor_type;location;lat;lon;timestamp;P1;durP1;ratioP1;P2;durP2;ratioP2
75316;SDS011;63913;51.492;10.368;2023-05-10T00:00:22;2.40;;;2.00;;
75316;SDS011;63913;51.492;10.368;2023-05-10T00:02:48;2.83;;;2.00;;
75316;SDS011;63913;51.492;10.368;2023-05-10T00:05:14;3.65;;;1.98;;
75316;SDS011;63913;51.492;10.368;2023-05-10T00:07:40;4.18;;;1.80;;
75316;SDS011;63913;51.492;10.368;2023-05-10T00:10:05;4.35;;;2.00;;
75316;SDS011;63913;51.492;10.368;2023-05-10T00:12:31;2.80;;;2.10;;
75316;SDS011;63913;51.492;10.368;2023-05-10T00:14:56;7.10;;;2.67;;
75316;SDS011;63913;51.492;10.368;2023-05-10T00:17:22;3.65;;;2.30;;
75316;SDS011;63913;51.492;10.368;2023-05-10T00:19:47;4.47;;;2.05;;
75316;SDS011;63913;51.492;10.368;2023-05-10T00:22:13;3.17;;;1.90;;
75316;SDS011;63913;51.492;10.368;2023-05-10T00:24:38;4.90;;;2.33;;
75316;SDS011;63913;51.492;10.368;2023-05-10T00:27:04;2.97;;;1.90;;
75316;SDS011;63913;51.492;10.368;2023-05-10T00:29:30;3.58;;;1.95;;
75316;SDS011;63913;51.492;10.368;2023-05-10T00:31:55;4.28;;;2.28;;
75316;SDS011;63913;51.492;10.368;2023-05-10T00:34:21;4.00;;;1.92;;
75316;SDS011;63913;51.492;10.368;2023-05-10T00:36:46;3.38;;;2.30;;
75316;SDS011;63913;51.492;10.368;2023-05-10T00:39:12;4.15;;;2.30;;
75316;SDS011;63913;51.492;10.368;2023-05-10T00:41:37;2.47;;;2.05;;
75316;SDS011;63913;51.492;10.368;2023-05-10T00:44:04;3.90;;;2.28;;
75316;SDS011;63913;51.492;10.368;2023-05-10T00:46:30;3.72;;;2.30;;
75316;SDS011;63913;51.492;10.368;2023-05-10T00:48:57;2.60;;;2.28;;
75316;SDS011;63913;51.492;10.368;2023-05-10T00:51:23;3.08;;;2.00;;
75316;SDS011;63913;51.492;10.368;2023-05-10T00:53:48;3.92;;;2.35;;
75316;SDS011;63913;51.492;10.368;2023-05-10T00:56:15;5.35;;;2.38;;
75316;SDS011;63913;51.492;10.368;2023-05-10T00:58:40;3.63;;;2.13;;
75316;SDS011;63913;51.492;10.368;2023-05-10T01:01:07;5.63;;;2.63;;
75316;SDS011;63913;51.492;10.368;2023-05-10T01:03:34;3.22;;;2.80;;
75316;SDS011;63913;51.492;10.368;2023-05-10T01:06:00;3.22;;;2.10;;
75316;SDS011;63913;51.492;10.368;2023-05-10T01:08:26;5.43;;;2.40;;
75316;SDS011;63913;51.492;10.368;2023-05-10T01:10:52;2.55;;;1.88;;
75316;SDS011;63913;51.492;10.368;2023-05-10T01:13:23;3.53;;;2.85;;
75316;SDS011;63913;51.492;10.368;2023-05-10T01:16:03;3.63;;;2.45;;
75316;SDS011;63913;51.492;10.368;2023-05-10T01:18:29;3.58;;;2.22;;
75316;SDS011;63913;51.492;10.368;2023-05-10T01:21:00;5.35;;;2.22;;
75316;SDS011;63913;51.492;10.368;2023-05-10T01:23:42;3.58;;;2.67;;
75316;SDS011;63913;51.492;10.368;2023-05-10T01:26:29;4.93;;;2.63;;
75316;SDS011;63913;51.492;10.368;2023-05-10T01:34:16;2.90;;;2.33;;
75316;SDS011;63913;51.492;10.368;2023-05-10T01:36:54;4.57;;;2.50;;
75316;SDS011;63913;51.492;10.368;2023-05-10T01:39:32;3.10;;;2.33;;
75316;SDS011;63913;51.492;10.368;2023-05-10T01:42:08;3.60;;;2.72;;
75316;SDS011;63913;51.492;10.368;2023-05-10T01:47:38;9.13;;;2.55;;
75316;SDS011;63913;51.492;10.368;2023-05-10T01:50:06;3.08;;;2.50;;
75316;SDS011;63913;51.492;10.368;2023-05-10T01:52:44;4.65;;;2.60;;
75316;SDS011;63913;51.492;10.368;2023-05-10T01:55:15;5.32;;;2.92;;
75316;SDS011;63913;51.492;10.368;2023-05-10T01:57:43;5.50;;;2.90;;
75316;SDS011;63913;51.492;10.368;2023-05-10T02:00:11;6.75;;;2.38;;
75316;SDS011;63913;51.492;10.368;2023-05-10T02:02:42;5.00;;;2.55;;
75316;SDS011;63913;51.492;10.368;2023-05-10T02:05:11;4.28;;;2.42;;
75316;SDS011;63913;51.492;10.368;2023-05-10T02:07:38;3.70;;;2.60;;
75316;SDS011;63913;51.492;10.368;2023-05-10T02:10:06;5.95;;;2.65;;
75316;SDS011;63913;51.492;10.368;2023-05-10T02:12:36;4.95;;;2.70;;
75316;SDS011;63913;51.492;10.368;2023-05-10T02:15:04;3.13;;;2.60;;
75316;SDS011;63913;51.492;10.368;2023-05-10T02:17:32;3.53;;;2.33;;
75316;SDS011;63913;51.492;10.368;2023-05-10T02:19:58;5.28;;;2.30;;
75316;SDS011;63913;51.492;10.368;2023-05-10T02:22:26;3.65;;;2.85;;
75316;SDS011;63913;51.492;10.368;2023-05-10T02:24:54;4.13;;;2.60;;
75316;SDS011;63913;51.492;10.368;2023-05-10T02:27:20;4.82;;;2.72;;
75316;SDS011;63913;51.492;10.368;2023-05-10T02:29:48;3.60;;;2.45;;
75316;SDS011;63913;51.492;10.368;2023-05-10T02:32:16;5.68;;;2.58;;
75316;SDS011;63913;51.492;10.368;2023-05-10T02:34:42;3.00;;;2.28;;
75316;SDS011;63913;51.492;10.368;2023-05-10T02:37:11;4.20;;;2.53;;
75316;SDS011;63913;51.492;10.368;2023-05-10T02:39:38;4.20;;;2.58;;
75316;SDS011;63913;51.492;10.368;2023-05-10T02:42:08;3.35;;;2.45;;
75316;SDS011;63913;51.492;10.368;2023-05-10T02:44:38;3.97;;;2.50;;
75316;SDS011;63913;51.492;10.368;2023-05-10T02:47:06;4.22;;;2.70;;
75316;SDS011;63913;51.492;10.368;2023-05-10T02:49:32;6.78;;;3.03;;
75316;SDS011;63913;51.492;10.368;2023-05-10T02:52:00;4.00;;;2.60;;
75316;SDS011;63913;51.492;10.368;2023-05-10T02:54:29;6.50;;;2.67;;
75316;SDS011;63913;51.492;10.368;2023-05-10T02:56:57;4.32;;;2.67;;
75316;SDS011;63913;51.492;10.368;2023-05-10T02:59:25;4.10;;;2.85;;
75316;SDS011;63913;51.492;10.368;2023-05-10T03:01:51;3.10;;;2.53;;
75316;SDS011;63913;51.492;10.368;2023-05-10T03:04:16;4.50;;;2.67;;
75316;SDS011;63913;51.492;10.368;2023-05-10T03:06:42;3.65;;;2.70;;
75316;SDS011;63913;51.492;10.368;2023-05-10T03:09:08;5.57;;;3.10;;
75316;SDS011;63913;51.492;10.368;2023-05-10T03:11:39;3.80;;;2.42;;
75316;SDS011;63913;51.492;10.368;2023-05-10T03:16:46;5.93;;;2.90;;
75316;SDS011;63913;51.492;10.368;2023-05-10T03:19:16;5.15;;;3.05;;
75316;SDS011;63913;51.492;10.368;2023-05-10T03:21:49;4.68;;;2.90;;
75316;SDS011;63913;51.492;10.368;2023-05-10T03:24:18;4.80;;;2.80;;
75316;SDS011;63913;51.492;10.368;2023-05-10T03:26:47;3.35;;;2.72;;
75316;SDS011;63913;51.492;10.368;2023-05-10T03:29:16;5.40;;;3.13;;
75316;SDS011;63913;51.492;10.368;2023-05-10T03:31:42;5.22;;;3.30;;
75316;SDS011;63913;51.492;10.368;2023-05-10T03:34:07;5.30;;;3.25;;
75316;SDS011;63913;51.492;10.368;2023-05-10T03:36:33;3.97;;;2.85;;
75316;SDS011;63913;51.492;10.368;2023-05-10T03:38:58;4.57;;;2.67;;
75316;SDS011;63913;51.492;10.368;2023-05-10T03:41:24;4.95;;;3.33;;
75316;SDS011;63913;51.492;10.368;2023-05-10T03:43:50;3.85;;;3.08;;
75316;SDS011;63913;51.492;10.368;2023-05-10T03:46:16;4.32;;;3.05;;
75316;SDS011;63913;51.492;10.368;2023-05-10T03:48:41;4.78;;;2.92;;
75316;SDS011;63913;51.492;10.368;2023-05-10T03:51:07;4.13;;;2.78;;
75316;SDS011;63913;51.492;10.368;2023-05-10T03:53:32;4.85;;;3.17;;
75316;SDS011;63913;51.492;10.368;2023-05-10T03:55:58;5.55;;;3.28;;
75316;SDS011;63913;51.492;10.368;2023-05-10T03:58:23;4.10;;;2.90;;
75316;SDS011;63913;51.492;10.368;2023-05-10T04:00:48;3.83;;;3.03;;
75316;SDS011;63913;51.492;10.368;2023-05-10T04:03:14;5.07;;;3.05;;
75316;SDS011;63913;51.492;10.368;2023-05-10T04:05:39;3.75;;;2.88;;
75316;SDS011;63913;51.492;10.368;2023-05-10T04:08:05;4.05;;;3.03;;
75316;SDS011;63913;51.492;10.368;2023-05-10T04:10:31;4.05;;;2.90;;
75316;SDS011;63913;51.492;10.368;2023-05-10T04:12:57;4.53;;;2.92;;
75316;SDS011;63913;51.492;10.368;2023-05-10T04:15:22;5.22;;;3.13;;
75316;SDS011;63913;51.492;10.368;2023-05-10T04:17:47;4.70;;;2.60;;
75316;SDS011;63913;51.492;10.368;2023-05-10T04:20:13;4.78;;;2.80;;
75316;SDS011;63913;51.492;10.368;2023-05-10T04:22:38;7.20;;;4.40;;
75316;SDS011;63913;51.492;10.368;2023-05-10T04:25:04;8.00;;;3.95;;
75316;SDS011;63913;51.492;10.368;2023-05-10T04:27:31;4.43;;;2.80;;
75316;SDS011;63913;51.492;10.368;2023-05-10T04:29:56;3.20;;;2.58;;
75316;SDS011;63913;51.492;10.368;2023-05-10T04:32:22;3.55;;;2.50;;
75316;SDS011;63913;51.492;10.368;2023-05-10T04:34:48;3.10;;;2.47;;
75316;SDS011;63913;51.492;10.368;2023-05-10T04:37:14;3.13;;;2.17;;
75316;SDS011;63913;51.492;10.368;2023-05-10T04:39:39;3.60;;;2.30;;
75316;SDS011;63913;51.492;10.368;2023-05-10T04:42:05;4.72;;;2.63;;
75316;SDS011;63913;51.492;10.368;2023-05-10T04:44:31;3.60;;;2.65;;
75316;SDS011;63913;51.492;10.368;2023-05-10T04:46:56;3.20;;;2.25;;
75316;SDS011;63913;51.492;10.368;2023-05-10T04:49:22;3.28;;;2.45;;
75316;SDS011;63913;51.492;10.368;2023-05-10T04:51:47;4.30;;;2.55;;
75316;SDS011;63913;51.492;10.368;2023-05-10T04:54:13;4.23;;;2.80;;
75316;SDS011;63913;51.492;10.368;2023-05-10T04:56:38;3.70;;;2.65;;
75316;SDS011;63913;51.492;10.368;2023-05-10T04:59:03;3.42;;;2.70;;
75316;SDS011;63913;51.492;10.368;2023-05-10T05:01:29;3.10;;;2.30;;
75316;SDS011;63913;51.492;10.368;2023-05-10T05:03:54;3.53;;;2.65;;
75316;SDS011;63913;51.492;10.368;2023-05-10T05:06:19;5.20;;;2.72;;
75316;SDS011;63913;51.492;10.368;2023-05-10T05:08:46;5.15;;;3.17;;
75316;SDS011;63913;51.492;10.368;2023-05-10T05:11:11;4.43;;;2.95;;
75316;SDS011;63913;51.492;10.368;2023-05-10T05:13:37;6.65;;;3.20;;
75316;SDS011;63913;51.492;10.368;2023-05-10T05:16:02;4.45;;;2.83;;
75316;SDS011;63913;51.492;10.368;2023-05-10T05:18:28;5.13;;;3.30;;
75316;SDS011;63913;51.492;10.368;2023-05-10T05:20:53;4.38;;;3.00;;
75316;SDS011;63913;51.492;10.368;2023-05-10T05:23:19;4.15;;;2.80;;
75316;SDS011;63913;51.492;10.368;2023-05-10T05:25:45;4.85;;;3.17;;
75316;SDS011;63913;51.492;10.368;2023-05-10T05:28:11;3.47;;;2.88;;
75316;SDS011;63913;51.492;10.368;2023-05-10T05:30:37;4.80;;;2.97;;
75316;SDS011;63913;51.492;10.368;2023-05-10T05:33:02;5.75;;;3.25;;
75316;SDS011;63913;51.492;10.368;2023-05-10T05:35:28;3.33;;;2.50;;
75316;SDS011;63913;51.492;10.368;2023-05-10T05:37:53;4.68;;;3.13;;
75316;SDS011;63913;51.492;10.368;2023-05-10T05:40:19;4.03;;;3.08;;
75316;SDS011;63913;51.492;10.368;2023-05-10T05:42:45;5.55;;;3.03;;
75316;SDS011;63913;51.492;10.368;2023-05-10T05:45:10;5.45;;;3.33;;
75316;SDS011;63913;51.492;10.368;2023-05-10T05:47:38;4.68;;;2.55;;
75316;SDS011;63913;51.492;10.368;2023-05-10T05:50:04;3.75;;;2.38;;
75316;SDS011;63913;51.492;10.368;2023-05-10T05:52:30;2.83;;;2.08;;
75316;SDS011;63913;51.492;10.368;2023-05-10T05:54:56;3.13;;;2.33;;
75316;SDS011;63913;51.492;10.368;2023-05-10T05:57:21;4.10;;;3.13;;
75316;SDS011;63913;51.492;10.368;2023-05-10T05:59:46;4.18;;;2.63;;
75316;SDS011;63913;51.492;10.368;2023-05-10T06:02:12;4.18;;;2.75;;
75316;SDS011;63913;51.492;10.368;2023-05-10T06:04:37;4.32;;;2.70;;
75316;SDS011;63913;51.492;10.368;2023-05-10T06:07:03;4.65;;;2.88;;
75316;SDS011;63913;51.492;10.368;2023-05-10T06:09:28;4.32;;;2.85;;
75316;SDS011;63913;51.492;10.368;2023-05-10T06:11:54;4.40;;;2.55;;
75316;SDS011;63913;51.492;10.368;2023-05-10T06:14:20;5.22;;;2.38;;
75316;SDS011;63913;51.492;10.368;2023-05-10T06:16:45;4.88;;;2.83;;
75316;SDS011;63913;51.492;10.368;2023-05-10T06:19:11;3.75;;;2.45;;
75316;SDS011;63913;51.492;10.368;2023-05-10T06:21:36;2.55;;;2.20;;
75316;SDS011;63913;51.492;10.368;2023-05-10T06:24:02;2.38;;;2.00;;
75316;SDS011;63913;51.492;10.368;2023-05-10T06:26:27;2.85;;;2.30;;
75316;SDS011;63913;51.492;10.368;2023-05-10T06:28:53;3.60;;;1.83;;
75316;SDS011;63913;51.492;10.368;2023-05-10T06:31:19;2.60;;;1.97;;
75316;SDS011;63913;51.492;10.368;2023-05-10T06:33:44;3.13;;;1.80;;
75316;SDS011;63913;51.492;10.368;2023-05-10T06:36:09;1.83;;;1.60;;
75316;SDS011;63913;51.492;10.368;2023-05-10T06:38:35;2.72;;;1.70;;
75316;SDS011;63913;51.492;10.368;2023-05-10T06:41:00;2.17;;;1.73;;
75316;SDS011;63913;51.492;10.368;2023-05-10T06:43:25;2.80;;;1.70;;
75316;SDS011;63913;51.492;10.368;2023-05-10T06:45:51;2.13;;;1.50;;
75316;SDS011;63913;51.492;10.368;2023-05-10T06:48:16;2.17;;;1.70;;
75316;SDS011;63913;51.492;10.368;2023-05-10T06:50:42;3.30;;;1.67;;
75316;SDS011;63913;51.492;10.368;2023-05-10T06:53:07;1.60;;;1.50;;
75316;SDS011;63913;51.492;10.368;2023-05-10T06:55:33;1.60;;;1.50;;
75316;SDS011;63913;51.492;10.368;2023-05-10T06:57:58;2.45;;;1.70;;
75316;SDS011;63913;51.492;10.368;2023-05-10T07:00:24;2.55;;;1.88;;
75316;SDS011;63913;51.492;10.368;2023-05-10T07:02:49;2.97;;;2.25;;
75316;SDS011;63913;51.492;10.368;2023-05-10T07:05:14;2.90;;;2.03;;
75316;SDS011;63913;51.492;10.368;2023-05-10T07:07:40;2.38;;;1.80;;
75316;SDS011;63913;51.492;10.368;2023-05-10T07:10:06;5.32;;;2.08;;
75316;SDS011;63913;51.492;10.368;2023-05-10T07:12:33;3.10;;;2.00;;
75316;SDS011;63913;51.492;10.368;2023-05-10T07:14:58;2.45;;;1.85;;
75316;SDS011;63913;51.492;10.368;2023-05-10T07:17:23;2.22;;;1.88;;
75316;SDS011;63913;51.492;10.368;2023-05-10T07:19:49;1.98;;;1.58;;
75316;SDS011;63913;51.492;10.368;2023-05-10T07:22:15;1.45;;;1.30;;
75316;SDS011;63913;51.492;10.368;2023-05-10T07:24:41;1.40;;;1.30;;
75316;SDS011;63913;51.492;10.368;2023-05-10T07:27:07;2.10;;;1.60;;
75316;SDS011;63913;51.492;10.368;2023-05-10T07:29:32;1.58;;;1.48;;
75316;SDS011;63913;51.492;10.368;2023-05-10T07:31:58;1.70;;;1.40;;
75316;SDS011;63913;51.492;10.368;2023-05-10T07:34:23;1.55;;;1.30;;
75316;SDS011;63913;51.492;10.368;2023-05-10T07:36:49;1.45;;;1.23;;
75316;SDS011;63913;51.492;10.368;2023-05-10T07:39:14;1.48;;;1.35;;
75316;SDS011;63913;51.492;10.368;2023-05-10T07:41:39;1.55;;;1.33;;
75316;SDS011;63913;51.492;10.368;2023-05-10T07:44:05;1.92;;;1.23;;
75316;SDS011;63913;51.492;10.368;2023-05-10T07:46:31;1.55;;;1.38;;
75316;SDS011;63913;51.492;10.368;2023-05-10T07:48:56;2.20;;;1.35;;
75316;SDS011;63913;51.492;10.368;2023-05-10T07:51:22;1.40;;;1.30;;
75316;SDS011;63913;51.492;10.368;2023-05-10T07:53:47;1.45;;;1.30;;
75316;SDS011;63913;51.492;10.368;2023-05-10T07:56:23;2.00;;;1.20;;
75316;SDS011;63913;51.492;10.368;2023-05-10T07:59:01;1.27;;;1.10;;
75316;SDS011;63913;51.492;10.368;2023-05-10T08:01:33;1.40;;;1.20;;
75316;SDS011;63913;51.492;10.368;2023-05-10T08:03:59;1.33;;;1.20;;
75316;SDS011;63913;51.492;10.368;2023-05-10T08:06:25;2.30;;;1.20;;
75316;SDS011;63913;51.492;10.368;2023-05-10T08:08:55;1.33;;;1.00;;
75316;SDS011;63913;51.492;10.368;2023-05-10T08:11:21;1.25;;;1.15;;
75316;SDS011;63913;51.492;10.368;2023-05-10T08:13:47;1.33;;;1.02;;
75316;SDS011;63913;51.492;10.368;2023-05-10T08:16:13;1.27;;;0.80;;
75316;SDS011;63913;51.492;10.368;2023-05-10T08:18:39;1.77;;;0.68;;
75316;SDS011;63913;51.492;10.368;2023-05-10T08:21:04;0.70;;;0.70;;
75316;SDS011;63913;51.492;10.368;2023-05-10T08:23:30;0.82;;;0.70;;
75316;SDS011;63913;51.492;10.368;2023-05-10T08:25:56;0.68;;;0.68;;
75316;SDS011;63913;51.492;10.368;2023-05-10T08:28:21;0.50;;;0.50;;
75316;SDS011;63913;51.492;10.368;2023-05-10T08:30:47;0.40;;;0.40;;
75316;SDS011;63913;51.492;10.368;2023-05-10T08:33:12;0.50;;;0.50;;
75316;SDS011;63913;51.492;10.368;2023-05-10T08:35:37;0.40;;;0.40;;
75316;SDS011;63913;51.492;10.368;2023-05-10T08:38:03;0.50;;;0.40;;
75316;SDS011;63913;51.492;10.368;2023-05-10T08:40:28;0.30;;;0.30;;
75316;SDS011;63913;51.492;10.368;2023-05-10T08:42:55;0.45;;;0.45;;
75316;SDS011;63913;51.492;10.368;2023-05-10T08:45:24;0.50;;;0.50;;
75316;SDS011;63913;51.492;10.368;2023-05-10T08:47:52;2.55;;;0.70;;
75316;SDS011;63913;51.492;10.368;2023-05-10T08:50:19;0.88;;;0.63;;
75316;SDS011;63913;51.492;10.368;2023-05-10T08:52:45;0.57;;;0.57;;
75316;SDS011;63913;51.492;10.368;2023-05-10T08:55:13;1.08;;;0.70;;
75316;SDS011;63913;51.492;10.368;2023-05-10T08:57:40;0.40;;;0.40;;
75316;SDS011;63913;51.492;10.368;2023-05-10T09:00:06;1.08;;;0.52;;
75316;SDS011;63913;51.492;10.368;2023-05-10T09:02:33;0.73;;;0.40;;
75316;SDS011;63913;51.492;10.368;2023-05-10T09:04:59;0.47;;;0.47;;
75316;SDS011;63913;51.492;10.368;2023-05-10T09:07:25;0.40;;;0.40;;
75316;SDS011;63913;51.492;10.368;2023-05-10T09:09:50;0.60;;;0.60;;
75316;SDS011;63913;51.492;10.368;2023-05-10T09:12:17;0.35;;;0.35;;
75316;SDS011;63913;51.492;10.368;2023-05-10T09:14:42;1.38;;;0.40;;
75316;SDS011;63913;51.492;10.368;2023-05-10T09:17:09;0.65;;;0.55;;
75316;SDS011;63913;51.492;10.368;2023-05-10T09:19:35;0.50;;;0.50;;
75316;SDS011;63913;51.492;10.368;2023-05-10T09:22:00;0.50;;;0.50;;
75316;SDS011;63913;51.492;10.368;2023-05-10T09:24:28;1.42;;;0.45;;
75316;SDS011;63913;51.492;10.368;2023-05-10T09:26:54;0.85;;;0.60;;
75316;SDS011;63913;51.492;10.368;2023-05-10T09:29:22;0.40;;;0.40;;
75316;SDS011;63913;51.492;10.368;2023-05-10T09:31:51;0.50;;;0.50;;
75316;SDS011;63913;51.492;10.368;2023-05-10T09:34:17;0.50;;;0.50;;
75316;SDS011;63913;51.492;10.368;2023-05-10T09:36:55;0.65;;;0.55;;
75316;SDS011;63913;51.492;10.368;2023-05-10T09:39:36;0.50;;;0.50;;
75316;SDS011;63913;51.492;10.368;2023-05-10T09:42:03;0.70;;;0.70;;
75316;SDS011;63913;51.492;10.368;2023-05-10T09:44:32;0.50;;;0.50;;
75316;SDS011;63913;51.492;10.368;2023-05-10T09:46:59;0.38;;;0.38;;
75316;SDS011;63913;51.492;10.368;2023-05-10T09:49:26;0.68;;;0.60;;
75316;SDS011;63913;51.492;10.368;2023-05-10T09:51:59;1.70;;;0.90;;
75316;SDS011;63913;51.492;10.368;2023-05-10T09:54:28;0.82;;;0.82;;
75316;SDS011;63913;51.492;10.368;2023-05-10T09:56:54;0.82;;;0.68;;
75316;SDS011;63913;51.492;10.368;2023-05-10T09:59:19;0.80;;;0.80;;
75316;SDS011;63913;51.492;10.368;2023-05-10T10:01:51;0.60;;;0.60;;
75316;SDS011;63913;51.492;10.368;2023-05-10T10:04:18;0.68;;;0.68;;
75316;SDS011;63913;51.492;10.368;2023-05-10T10:06:45;1.15;;;0.80;;
75316;SDS011;63913;51.492;10.368;2023-05-10T10:09:10;0.70;;;0.70;;
75316;SDS011;63913;51.492;10.368;2023-05-10T10:11:36;0.60;;;0.60;;
75316;SDS011;63913;51.492;10.368;2023-05-10T10:14:02;0.65;;;0.65;;
75316;SDS011;63913;51.492;10.368;2023-05-10T10:16:29;3.65;;;0.70;;
75316;SDS011;63913;51.492;10.368;2023-05-10T10:18:55;0.52;;;0.52;;
75316;SDS011;63913;51.492;10.368;2023-05-10T10:21:21;0.70;;;0.70;;
75316;SDS011;63913;51.492;10.368;2023-05-10T10:23:48;0.80;;;0.77;;
75316;SDS011;63913;51.492;10.368;2023-05-10T10:26:13;0.63;;;0.63;;
75316;SDS011;63913;51.492;10.368;2023-05-10T10:28:46;0.70;;;0.70;;
75316;SDS011;63913;51.492;10.368;2023-05-10T10:31:20;0.52;;;0.52;;
75316;SDS011;63913;51.492;10.368;2023-05-10T10:36:27;0.77;;;0.60;;
75316;SDS011;63913;51.492;10.368;2023-05-10T10:41:32;0.68;;;0.60;;
75316;SDS011;63913;51.492;10.368;2023-05-10T10:44:33;0.70;;;0.70;;
75316;SDS011;63913;51.492;10.368;2023-05-10T10:47:10;0.63;;;0.63;;
75316;SDS011;63913;51.492;10.368;2023-05-10T10:50:12;0.60;;;0.60;;
75316;SDS011;63913;51.492;10.368;2023-05-10T10:52:44;0.80;;;0.80;;
75316;SDS011;63913;51.492;10.368;2023-05-10T10:55:20;0.52;;;0.52;;
75316;SDS011;63913;51.492;10.368;2023-05-10T10:57:55;1.92;;;0.70;;
75316;SDS011;63913;51.492;10.368;2023-05-10T11:00:32;0.63;;;0.63;;
75316;SDS011;63913;51.492;10.368;2023-05-10T11:03:08;0.60;;;0.50;;
75316;SDS011;63913;51.492;10.368;2023-05-10T11:05:47;0.43;;;0.43;;
75316;SDS011;63913;51.492;10.368;2023-05-10T11:08:27;1.20;;;0.60;;
75316;SDS011;63913;51.492;10.368;2023-05-10T11:10:53;1.75;;;0.65;;
75316;SDS011;63913;51.492;10.368;2023-05-10T11:13:40;0.30;;;0.10;;
75316;SDS011;63913;51.492;10.368;2023-05-10T11:18:37;0.85;;;0.40;;
75316;SDS011;63913;51.492;10.368;2023-05-10T11:21:03;1.65;;;0.30;;
75316;SDS011;63913;51.492;10.368;2023-05-10T11:24:13;0.77;;;0.50;;
75316;SDS011;63913;51.492;10.368;2023-05-10T11:26:22;0.85;;;0.55;;
75316;SDS011;63913;51.492;10.368;2023-05-10T11:28:52;0.50;;;0.40;;
75316;SDS011;63913;51.492;10.368;2023-05-10T11:31:20;1.67;;;0.57;;
75316;SDS011;63913;51.492;10.368;2023-05-10T11:33:47;0.20;;;0.20;;
75316;SDS011;63913;51.492;10.368;2023-05-10T11:36:35;0.40;;;0.40;;
75316;SDS011;63913;51.492;10.368;2023-05-10T11:39:01;1.15;;;0.40;;
75316;SDS011;63913;51.492;10.368;2023-05-10T11:41:28;0.40;;;0.35;;
75316;SDS011;63913;51.492;10.368;2023-05-10T11:43:55;0.50;;;0.30;;
75316;SDS011;63913;51.492;10.368;2023-05-10T11:46:25;0.70;;;0.70;;
75316;SDS011;63913;51.492;10.368;2023-05-10T11:49:01;0.40;;;0.40;;
75316;SDS011;63913;51.492;10.368;2023-05-10T11:51:29;0.60;;;0.50;;
75316;SDS011;63913;51.492;10.368;2023-05-10T11:53:57;1.00;;;0.50;;
75316;SDS011;63913;51.492;10.368;2023-05-10T11:56:23;0.43;;;0.40;;
75316;SDS011;63913;51.492;10.368;2023-05-10T11:58:56;0.60;;;0.60;;
75316;SDS011;63913;51.492;10.368;2023-05-10T12:01:23;0.85;;;0.52;;
75316;SDS011;63913;51.492;10.368;2023-05-10T12:03:50;0.47;;;0.40;;
75316;SDS011;63913;51.492;10.368;2023-05-10T12:06:18;0.50;;;0.50;;
75316;SDS011;63913;51.492;10.368;2023-05-10T12:08:45;0.98;;;0.60;;
75316;SDS011;63913;51.492;10.368;2023-05-10T12:11:12;0.50;;;0.50;;
75316;SDS011;63913;51.492;10.368;2023-05-10T12:13:41;0.80;;;0.70;;
75316;SDS011;63913;51.492;10.368;2023-05-10T12:18:43;0.98;;;0.80;;
75316;SDS011;63913;51.492;10.368;2023-05-10T12:21:10;1.13;;;0.52;;
75316;SDS011;63913;51.492;10.368;2023-05-10T12:23:36;1.08;;;0.50;;
75316;SDS011;63913;51.492;10.368;2023-05-10T12:26:03;0.90;;;0.60;;
75316;SDS011;63913;51.492;10.368;2023-05-10T12:28:32;1.17;;;0.50;;
75316;SDS011;63913;51.492;10.368;2023-05-10T12:30:58;0.60;;;0.60;;
75316;SDS011;63913;51.492;10.368;2023-05-10T12:33:24;1.08;;;0.45;;
75316;SDS011;63913;51.492;10.368;2023-05-10T12:35:50;0.63;;;0.52;;
75316;SDS011;63913;51.492;10.368;2023-05-10T12:40:50;1.52;;;0.68;;
75316;SDS011;63913;51.492;10.368;2023-05-10T12:43:15;0.70;;;0.70;;
75316;SDS011;63913;51.492;10.368;2023-05-10T12:45:40;1.02;;;0.68;;
75316;SDS011;63913;51.492;10.368;2023-05-10T12:48:06;1.00;;;0.60;;
75316;SDS011;63913;51.492;10.368;2023-05-10T12:50:31;0.50;;;0.50;;
75316;SDS011;63913;51.492;10.368;2023-05-10T12:52:56;0.40;;;0.40;;
75316;SDS011;63913;51.492;10.368;2023-05-10T12:55:22;0.53;;;0.50;;
75316;SDS011;63913;51.492;10.368;2023-05-10T12:57:47;1.05;;;0.40;;
75316;SDS011;63913;51.492;10.368;2023-05-10T13:00:13;1.58;;;0.60;;
75316;SDS011;63913;51.492;10.368;2023-05-10T13:02:39;0.85;;;0.50;;
75316;SDS011;63913;51.492;10.368;2023-05-10T13:05:04;1.85;;;0.43;;
75316;SDS011;63913;51.492;10.368;2023-05-10T13:07:30;0.50;;;0.50;;
75316;SDS011;63913;51.492;10.368;2023-05-10T13:09:56;0.33;;;0.33;;
75316;SDS011;63913;51.492;10.368;2023-05-10T13:12:21;0.50;;;0.50;;
75316;SDS011;63913;51.492;10.368;2023-05-10T13:14:46;0.60;;;0.60;;
75316;SDS011;63913;51.492;10.368;2023-05-10T13:17:12;0.40;;;0.20;;
75316;SDS011;63913;51.492;10.368;2023-05-10T13:19:37;0.50;;;0.50;;
75316;SDS011;63913;51.492;10.368;2023-05-10T13:22:03;0.52;;;0.52;;
75316;SDS011;63913;51.492;10.368;2023-05-10T13:24:28;2.70;;;0.73;;
75316;SDS011;63913;51.492;10.368;2023-05-10T13:26:53;2.75;;;0.60;;
75316;SDS011;63913;51.492;10.368;2023-05-10T13:29:19;0.60;;;0.40;;
75316;SDS011;63913;51.492;10.368;2023-05-10T13:31:44;0.55;;;0.45;;
75316;SDS011;63913;51.492;10.368;2023-05-10T13:34:09;0.50;;;0.50;;
75316;SDS011;63913;51.492;10.368;2023-05-10T13:36:35;0.40;;;0.40;;
75316;SDS011;63913;51.492;10.368;2023-05-10T13:39:00;0.80;;;0.65;;
75316;SDS011;63913;51.492;10.368;2023-05-10T13:41:27;1.02;;;0.70;;
75316;SDS011;63913;51.492;10.368;2023-05-10T13:43:52;0.60;;;0.60;;
75316;SDS011;63913;51.492;10.368;2023-05-10T13:46:18;0.80;;;0.80;;
75316;SDS011;63913;51.492;10.368;2023-05-10T13:48:44;0.57;;;0.38;;
75316;SDS011;63913;51.492;10.368;2023-05-10T13:51:09;2.30;;;0.43;;
75316;SDS011;63913;51.492;10.368;2023-05-10T13:53:35;0.52;;;0.52;;
75316;SDS011;63913;51.492;10.368;2023-05-10T13:56:00;1.33;;;0.63;;
75316;SDS011;63913;51.492;10.368;2023-05-10T13:58:27;0.65;;;0.40;;
75316;SDS011;63913;51.492;10.368;2023-05-10T14:00:52;0.50;;;0.50;;
75316;SDS011;63913;51.492;10.368;2023-05-10T14:03:17;0.73;;;0.50;;
75316;SDS011;63913;51.492;10.368;2023-05-10T14:05:43;0.40;;;0.40;;
75316;SDS011;63913;51.492;10.368;2023-05-10T14:08:09;0.75;;;0.65;;
75316;SDS011;63913;51.492;10.368;2023-05-10T14:10:36;0.98;;;0.50;;
75316;SDS011;63913;51.492;10.368;2023-05-10T14:13:02;1.95;;;0.57;;
75316;SDS011;63913;51.492;10.368;2023-05-10T14:15:28;1.80;;;0.65;;
75316;SDS011;63913;51.492;10.368;2023-05-10T14:17:53;1.08;;;0.47;;
75316;SDS011;63913;51.492;10.368;2023-05-10T14:20:27;0.65;;;0.57;;
75316;SDS011;63913;51.492;10.368;2023-05-10T14:22:52;1.67;;;0.68;;
75316;SDS011;63913;51.492;10.368;2023-05-10T14:25:17;0.73;;;0.73;;
75316;SDS011;63913;51.492;10.368;2023-05-10T14:27:43;0.60;;;0.60;;
75316;SDS011;63913;51.492;10.368;2023-05-10T14:30:08;0.85;;;0.73;;
75316;SDS011;63913;51.492;10.368;2023-05-10T14:32:34;2.75;;;0.68;;
75316;SDS011;63913;51.492;10.368;2023-05-10T14:35:01;0.63;;;0.63;;
75316;SDS011;63913;51.492;10.368;2023-05-10T14:37:27;1.85;;;0.90;;
75316;SDS011;63913;51.492;10.368;2023-05-10T14:39:52;2.30;;;0.70;;
75316;SDS011;63913;51.492;10.368;2023-05-10T14:42:19;0.60;;;0.60;;
75316;SDS011;63913;51.492;10.368;2023-05-10T14:44:44;0.57;;;0.50;;
75316;SDS011;63913;51.492;10.368;2023-05-10T14:47:10;0.65;;;0.60;;
75316;SDS011;63913;51.492;10.368;2023-05-10T14:49:35;0.77;;;0.60;;
75316;SDS011;63913;51.492;10.368;2023-05-10T14:52:00;3.58;;;1.17;;
75316;SDS011;63913;51.492;10.368;2023-05-10T14:54:26;0.70;;;0.65;;
75316;SDS011;63913;51.492;10.368;2023-05-10T14:56:51;0.70;;;0.70;;